sensor_id;sensor_type;location;lat;lon;timestamp;P1;durP1;ratioP1;P2;durP2;ratioP2
679;SDS011;322;48.846;9.230;2023-08-21T00:00:58;53.03;;;41.73;;
679;SDS011;322;48.846;9.230;2023-08-21T00:03:26;53.40;;;42.30;;
679;SDS011;322;48.846;9.230;2023-08-21T00:05:56;52.80;;;40.70;;
679;SDS011;322;48.846;9.230;2023-08-21T00:08:24;57.20;;;51.27;;
679;SDS011;322;48.846;9.230;2023-08-21T00:10:52;56.50;;;46.10;;
679;SDS011;322;48.846;9.230;2023-08-21T00:13:20;54.33;;;45.17;;
679;SDS011;322;48.846;9.230;2023-08-21T00:15:48;52.27;;;43.80;;
679;SDS011;322;48.846;9.230;2023-08-21T00:18:17;54.43;;;48.60;;
679;SDS011;322;48.846;9.230;2023-08-21T00:20:45;165.80;;;156.40;;
679;SDS011;322;48.846;9.230;2023-08-21T00:23:13;161.47;;;152.20;;
679;SDS011;322;48.846;9.230;2023-08-21T00:25:46;168.00;;;158.30;;
679;SDS011;322;48.846;9.230;2023-08-21T00:28:15;184.57;;;174.67;;
679;SDS011;322;48.846;9.230;2023-08-21T00:30:43;182.70;;;172.87;;
679;SDS011;322;48.846;9.230;2023-08-21T00:33:12;172.83;;;163.37;;
679;SDS011;322;48.846;9.230;2023-08-21T00:35:41;176.03;;;166.23;;
679;SDS011;322;48.846;9.230;2023-08-21T00:38:09;167.50;;;157.90;;
679;SDS011;322;48.846;9.230;2023-08-21T00:40:37;166.83;;;157.50;;
679;SDS011;322;48.846;9.230;2023-08-21T00:43:05;168.63;;;159.03;;
679;SDS011;322;48.846;9.230;2023-08-21T00:45:33;169.13;;;159.67;;
679;SDS011;322;48.846;9.230;2023-08-21T00:48:01;169.43;;;159.77;;
679;SDS011;322;48.846;9.230;2023-08-21T00:50:29;166.03;;;156.57;;
679;SDS011;322;48.846;9.230;2023-08-21T00:52:59;172.73;;;163.03;;
679;SDS011;322;48.846;9.230;2023-08-21T00:55:29;170.07;;;160.67;;
679;SDS011;322;48.846;9.230;2023-08-21T00:57:58;166.60;;;157.30;;
679;SDS011;322;48.846;9.230;2023-08-21T01:00:27;165.03;;;155.73;;
679;SDS011;322;48.846;9.230;2023-08-21T01:02:57;160.87;;;151.37;;
679;SDS011;322;48.846;9.230;2023-08-21T01:05:25;159.20;;;149.67;;
679;SDS011;322;48.846;9.230;2023-08-21T01:07:57;158.60;;;149.20;;
679;SDS011;322;48.846;9.230;2023-08-21T01:10:33;287.00;;;271.37;;
679;SDS011;322;48.846;9.230;2023-08-21T01:13:18;133.23;;;124.53;;
679;SDS011;322;48.846;9.230;2023-08-21T01:15:51;219.47;;;201.63;;
679;SDS011;322;48.846;9.230;2023-08-21T01:18:21;362.87;;;333.53;;
679;SDS011;322;48.846;9.230;2023-08-21T01:20:49;342.40;;;134.57;;
679;SDS011;322;48.846;9.230;2023-08-21T01:23:32;26.33;;;24.10;;
679;SDS011;322;48.846;9.230;2023-08-21T01:26:01;13.63;;;8.33;;
679;SDS011;322;48.846;9.230;2023-08-21T01:28:29;15.73;;;9.60;;
679;SDS011;322;48.846;9.230;2023-08-21T01:30:59;14.57;;;8.57;;
679;SDS011;322;48.846;9.230;2023-08-21T01:33:33;14.07;;;8.60;;
679;SDS011;322;48.846;9.230;2023-08-21T01:36:06;13.13;;;9.20;;
679;SDS011;322;48.846;9.230;2023-08-21T01:38:36;13.37;;;8.07;;
679;SDS011;322;48.846;9.230;2023-08-21T01:41:04;12.90;;;8.63;;
679;SDS011;322;48.846;9.230;2023-08-21T01:43:32;340.63;;;84.87;;
679;SDS011;322;48.846;9.230;2023-08-21T01:46:00;14.13;;;8.87;;
679;SDS011;322;48.846;9.230;2023-08-21T01:48:29;372.10;;;104.13;;
679;SDS011;322;48.846;9.230;2023-08-21T01:50:57;14.13;;;8.20;;
679;SDS011;322;48.846;9.230;2023-08-21T01:53:28;14.07;;;9.50;;
679;SDS011;322;48.846;9.230;2023-08-21T01:55:57;12.77;;;9.60;;
679;SDS011;322;48.846;9.230;2023-08-21T01:58:25;13.60;;;9.23;;
679;SDS011;322;48.846;9.230;2023-08-21T02:00:53;13.00;;;9.53;;
679;SDS011;322;48.846;9.230;2023-08-21T02:03:21;15.90;;;8.40;;
679;SDS011;322;48.846;9.230;2023-08-21T02:05:55;14.10;;;9.60;;
679;SDS011;322;48.846;9.230;2023-08-21T02:08:25;13.47;;;8.50;;
679;SDS011;322;48.846;9.230;2023-08-21T02:10:59;12.57;;;8.27;;
679;SDS011;322;48.846;9.230;2023-08-21T02:13:27;17.07;;;8.90;;
679;SDS011;322;48.846;9.230;2023-08-21T02:15:55;14.70;;;9.60;;
679;SDS011;322;48.846;9.230;2023-08-21T02:18:23;17.70;;;10.20;;
679;SDS011;322;48.846;9.230;2023-08-21T02:20:51;12.17;;;8.40;;
679;SDS011;322;48.846;9.230;2023-08-21T02:23:19;16.33;;;10.03;;
679;SDS011;322;48.846;9.230;2023-08-21T02:25:47;14.00;;;9.30;;
679;SDS011;322;48.846;9.230;2023-08-21T02:28:17;14.77;;;9.47;;
679;SDS011;322;48.846;9.230;2023-08-21T02:30:45;16.70;;;9.37;;
679;SDS011;322;48.846;9.230;2023-08-21T02:33:13;14.13;;;8.90;;
679;SDS011;322;48.846;9.230;2023-08-21T02:35:40;14.60;;;9.13;;
679;SDS011;322;48.846;9.230;2023-08-21T02:38:08;14.87;;;8.30;;
679;SDS011;322;48.846;9.230;2023-08-21T02:40:36;14.30;;;10.33;;
679;SDS011;322;48.846;9.230;2023-08-21T02:43:04;15.97;;;9.97;;
679;SDS011;322;48.846;9.230;2023-08-21T02:45:34;16.40;;;10.27;;
679;SDS011;322;48.846;9.230;2023-08-21T02:48:02;17.30;;;10.73;;
679;SDS011;322;48.846;9.230;2023-08-21T02:50:30;16.23;;;10.50;;
679;SDS011;322;48.846;9.230;2023-08-21T02:52:58;14.60;;;9.97;;
679;SDS011;322;48.846;9.230;2023-08-21T02:55:26;14.60;;;10.37;;
679;SDS011;322;48.846;9.230;2023-08-21T02:57:54;15.83;;;9.70;;
679;SDS011;322;48.846;9.230;2023-08-21T03:00:22;17.30;;;11.43;;
679;SDS011;322;48.846;9.230;2023-08-21T03:02:51;14.70;;;9.50;;
679;SDS011;322;48.846;9.230;2023-08-21T03:05:19;17.43;;;10.00;;
679;SDS011;322;48.846;9.230;2023-08-21T03:07:47;15.70;;;9.63;;
679;SDS011;322;48.846;9.230;2023-08-21T03:10:15;16.30;;;9.97;;
679;SDS011;322;48.846;9.230;2023-08-21T03:12:43;17.83;;;10.00;;
679;SDS011;322;48.846;9.230;2023-08-21T03:15:11;14.83;;;9.70;;
679;SDS011;322;48.846;9.230;2023-08-21T03:17:39;14.03;;;10.83;;
679;SDS011;322;48.846;9.230;2023-08-21T03:20:09;15.80;;;11.37;;
679;SDS011;322;48.846;9.230;2023-08-21T03:22:37;14.87;;;11.13;;
679;SDS011;322;48.846;9.230;2023-08-21T03:25:06;16.73;;;10.80;;
679;SDS011;322;48.846;9.230;2023-08-21T03:27:34;14.47;;;10.27;;
679;SDS011;322;48.846;9.230;2023-08-21T03:30:05;15.03;;;10.20;;
679;SDS011;322;48.846;9.230;2023-08-21T03:32:36;15.67;;;12.00;;
679;SDS011;322;48.846;9.230;2023-08-21T03:35:05;15.03;;;10.93;;
679;SDS011;322;48.846;9.230;2023-08-21T03:37:34;15.30;;;11.93;;
679;SDS011;322;48.846;9.230;2023-08-21T03:40:02;15.63;;;11.97;;
679;SDS011;322;48.846;9.230;2023-08-21T03:42:31;16.77;;;11.20;;
679;SDS011;322;48.846;9.230;2023-08-21T03:44:59;17.30;;;10.90;;
679;SDS011;322;48.846;9.230;2023-08-21T03:47:27;16.60;;;11.80;;
679;SDS011;322;48.846;9.230;2023-08-21T03:49:54;15.90;;;12.10;;
679;SDS011;322;48.846;9.230;2023-08-21T03:52:22;15.43;;;11.70;;
679;SDS011;322;48.846;9.230;2023-08-21T03:54:52;15.37;;;11.07;;
679;SDS011;322;48.846;9.230;2023-08-21T03:57:19;15.70;;;12.00;;
679;SDS011;322;48.846;9.230;2023-08-21T03:59:47;16.00;;;12.07;;
679;SDS011;322;48.846;9.230;2023-08-21T04:02:15;15.27;;;11.60;;
679;SDS011;322;48.846;9.230;2023-08-21T04:04:43;17.67;;;12.30;;
679;SDS011;322;48.846;9.230;2023-08-21T04:07:11;17.77;;;12.80;;
679;SDS011;322;48.846;9.230;2023-08-21T04:09:39;16.33;;;13.30;;
679;SDS011;322;48.846;9.230;2023-08-21T04:12:09;18.40;;;12.07;;
679;SDS011;322;48.846;9.230;2023-08-21T04:14:39;14.60;;;10.80;;
679;SDS011;322;48.846;9.230;2023-08-21T04:17:06;14.67;;;11.43;;
679;SDS011;322;48.846;9.230;2023-08-21T04:19:34;14.93;;;11.50;;
679;SDS011;322;48.846;9.230;2023-08-21T04:22:02;14.77;;;11.60;;
679;SDS011;322;48.846;9.230;2023-08-21T04:24:30;16.17;;;12.47;;
679;SDS011;322;48.846;9.230;2023-08-21T04:26:58;17.03;;;12.03;;
679;SDS011;322;48.846;9.230;2023-08-21T04:29:28;17.53;;;11.03;;
679;SDS011;322;48.846;9.230;2023-08-21T04:31:56;16.33;;;11.93;;
679;SDS011;322;48.846;9.230;2023-08-21T04:34:24;20.03;;;12.53;;
679;SDS011;322;48.846;9.230;2023-08-21T04:36:52;17.73;;;12.20;;
679;SDS011;322;48.846;9.230;2023-08-21T04:39:20;15.50;;;11.30;;
679;SDS011;322;48.846;9.230;2023-08-21T04:41:47;18.07;;;12.83;;
679;SDS011;322;48.846;9.230;2023-08-21T04:44:15;19.10;;;12.40;;
679;SDS011;322;48.846;9.230;2023-08-21T04:46:48;16.00;;;11.80;;
679;SDS011;322;48.846;9.230;2023-08-21T04:49:17;17.40;;;11.40;;
679;SDS011;322;48.846;9.230;2023-08-21T04:51:45;20.53;;;12.00;;
679;SDS011;322;48.846;9.230;2023-08-21T04:54:13;16.90;;;11.90;;
679;SDS011;322;48.846;9.230;2023-08-21T04:56:41;16.43;;;12.07;;
679;SDS011;322;48.846;9.230;2023-08-21T04:59:08;15.40;;;12.10;;
679;SDS011;322;48.846;9.230;2023-08-21T05:01:36;16.03;;;11.87;;
679;SDS011;322;48.846;9.230;2023-08-21T05:04:06;15.67;;;11.43;;
679;SDS011;322;48.846;9.230;2023-08-21T05:06:34;16.13;;;11.60;;
679;SDS011;322;48.846;9.230;2023-08-21T05:09:02;14.93;;;11.57;;
679;SDS011;322;48.846;9.230;2023-08-21T05:11:30;16.60;;;11.67;;
679;SDS011;322;48.846;9.230;2023-08-21T05:13:58;15.67;;;12.13;;
679;SDS011;322;48.846;9.230;2023-08-21T05:16:28;15.20;;;12.70;;
679;SDS011;322;48.846;9.230;2023-08-21T05:18:56;16.03;;;12.13;;
679;SDS011;322;48.846;9.230;2023-08-21T05:21:25;25.43;;;13.63;;
679;SDS011;322;48.846;9.230;2023-08-21T05:23:53;18.67;;;12.63;;
679;SDS011;322;48.846;9.230;2023-08-21T05:26:21;15.17;;;11.80;;
679;SDS011;322;48.846;9.230;2023-08-21T05:28:49;17.83;;;12.00;;
679;SDS011;322;48.846;9.230;2023-08-21T05:31:17;13.90;;;11.10;;
679;SDS011;322;48.846;9.230;2023-08-21T05:33:45;15.50;;;11.37;;
679;SDS011;322;48.846;9.230;2023-08-21T05:36:12;18.27;;;11.60;;
679;SDS011;322;48.846;9.230;2023-08-21T05:38:42;14.50;;;11.70;;
679;SDS011;322;48.846;9.230;2023-08-21T05:41:10;17.47;;;12.60;;
679;SDS011;322;48.846;9.230;2023-08-21T05:43:38;18.60;;;13.70;;
679;SDS011;322;48.846;9.230;2023-08-21T05:46:08;16.13;;;13.27;;
679;SDS011;322;48.846;9.230;2023-08-21T05:48:36;19.77;;;14.37;;
679;SDS011;322;48.846;9.230;2023-08-21T05:51:04;20.90;;;13.97;;
679;SDS011;322;48.846;9.230;2023-08-21T05:53:32;18.27;;;13.70;;
679;SDS011;322;48.846;9.230;2023-08-21T05:56:01;17.37;;;13.00;;
679;SDS011;322;48.846;9.230;2023-08-21T05:58:29;15.63;;;12.60;;
679;SDS011;322;48.846;9.230;2023-08-21T06:00:59;19.73;;;12.67;;
679;SDS011;322;48.846;9.230;2023-08-21T06:03:27;16.70;;;13.00;;
679;SDS011;322;48.846;9.230;2023-08-21T06:05:55;18.40;;;12.70;;
679;SDS011;322;48.846;9.230;2023-08-21T06:08:23;15.90;;;12.80;;
679;SDS011;322;48.846;9.230;2023-08-21T06:10:51;17.77;;;13.23;;
679;SDS011;322;48.846;9.230;2023-08-21T06:13:21;16.50;;;13.20;;
679;SDS011;322;48.846;9.230;2023-08-21T06:15:49;19.10;;;14.23;;
679;SDS011;322;48.846;9.230;2023-08-21T06:18:17;16.87;;;13.10;;
679;SDS011;322;48.846;9.230;2023-08-21T06:20:45;17.80;;;12.40;;
679;SDS011;322;48.846;9.230;2023-08-21T06:23:13;19.23;;;12.17;;
679;SDS011;322;48.846;9.230;2023-08-21T06:25:41;16.83;;;12.57;;
679;SDS011;322;48.846;9.230;2023-08-21T06:28:10;15.40;;;12.63;;
679;SDS011;322;48.846;9.230;2023-08-21T06:30:39;16.10;;;12.20;;
679;SDS011;322;48.846;9.230;2023-08-21T06:33:07;17.17;;;12.27;;
679;SDS011;322;48.846;9.230;2023-08-21T06:35:36;14.20;;;10.80;;
679;SDS011;322;48.846;9.230;2023-08-21T06:38:04;15.60;;;12.13;;
679;SDS011;322;48.846;9.230;2023-08-21T06:40:33;16.63;;;12.00;;
679;SDS011;322;48.846;9.230;2023-08-21T06:43:01;17.90;;;12.20;;
679;SDS011;322;48.846;9.230;2023-08-21T06:45:32;13.40;;;10.70;;
679;SDS011;322;48.846;9.230;2023-08-21T06:48:02;16.07;;;11.30;;
679;SDS011;322;48.846;9.230;2023-08-21T06:50:30;16.97;;;10.90;;
679;SDS011;322;48.846;9.230;2023-08-21T06:52:58;19.43;;;12.07;;
679;SDS011;322;48.846;9.230;2023-08-21T06:55:26;16.70;;;10.60;;
679;SDS011;322;48.846;9.230;2023-08-21T06:57:54;15.73;;;12.10;;
679;SDS011;322;48.846;9.230;2023-08-21T07:00:22;17.23;;;11.13;;
679;SDS011;322;48.846;9.230;2023-08-21T07:02:50;15.80;;;11.33;;
679;SDS011;322;48.846;9.230;2023-08-21T07:05:19;16.73;;;12.30;;
679;SDS011;322;48.846;9.230;2023-08-21T07:07:47;15.20;;;10.43;;
679;SDS011;322;48.846;9.230;2023-08-21T07:10:15;17.77;;;11.50;;
679;SDS011;322;48.846;9.230;2023-08-21T07:12:43;17.13;;;11.83;;
679;SDS011;322;48.846;9.230;2023-08-21T07:15:11;16.47;;;11.30;;
679;SDS011;322;48.846;9.230;2023-08-21T07:17:39;18.63;;;11.53;;
679;SDS011;322;48.846;9.230;2023-08-21T07:20:07;17.27;;;11.10;;
679;SDS011;322;48.846;9.230;2023-08-21T07:22:38;18.40;;;12.33;;
679;SDS011;322;48.846;9.230;2023-08-21T07:25:07;14.10;;;9.93;;
679;SDS011;322;48.846;9.230;2023-08-21T07:27:35;15.83;;;10.47;;
679;SDS011;322;48.846;9.230;2023-08-21T07:30:03;13.00;;;9.17;;
679;SDS011;322;48.846;9.230;2023-08-21T07:32:33;15.27;;;10.27;;
679;SDS011;322;48.846;9.230;2023-08-21T07:35:01;16.43;;;11.00;;
679;SDS011;322;48.846;9.230;2023-08-21T07:37:29;15.07;;;10.30;;
679;SDS011;322;48.846;9.230;2023-08-21T07:39:58;16.20;;;10.50;;
679;SDS011;322;48.846;9.230;2023-08-21T07:42:26;18.83;;;10.67;;
679;SDS011;322;48.846;9.230;2023-08-21T07:44:54;15.33;;;9.47;;
679;SDS011;322;48.846;9.230;2023-08-21T07:47:22;16.23;;;11.20;;
679;SDS011;322;48.846;9.230;2023-08-21T07:49:50;18.30;;;11.47;;
679;SDS011;322;48.846;9.230;2023-08-21T07:52:18;16.63;;;11.83;;
679;SDS011;322;48.846;9.230;2023-08-21T07:54:46;19.07;;;12.07;;
679;SDS011;322;48.846;9.230;2023-08-21T07:57:19;15.30;;;10.87;;
679;SDS011;322;48.846;9.230;2023-08-21T07:59:47;15.23;;;10.40;;
679;SDS011;322;48.846;9.230;2023-08-21T08:02:15;15.30;;;9.83;;
679;SDS011;322;48.846;9.230;2023-08-21T08:04:43;14.57;;;8.73;;
679;SDS011;322;48.846;9.230;2023-08-21T08:07:11;13.50;;;9.37;;
679;SDS011;322;48.846;9.230;2023-08-21T08:09:39;13.70;;;9.30;;
679;SDS011;322;48.846;9.230;2023-08-21T08:12:08;12.93;;;8.23;;
679;SDS011;322;48.846;9.230;2023-08-21T08:14:37;13.23;;;9.70;;
679;SDS011;322;48.846;9.230;2023-08-21T08:17:05;15.10;;;9.90;;
679;SDS011;322;48.846;9.230;2023-08-21T08:19:33;15.00;;;10.87;;
679;SDS011;322;48.846;9.230;2023-08-21T08:22:01;16.83;;;9.47;;
679;SDS011;322;48.846;9.230;2023-08-21T08:24:29;14.03;;;9.10;;
679;SDS011;322;48.846;9.230;2023-08-21T08:26:58;15.47;;;10.50;;
679;SDS011;322;48.846;9.230;2023-08-21T08:29:26;15.63;;;10.00;;
679;SDS011;322;48.846;9.230;2023-08-21T08:31:55;13.80;;;10.00;;
679;SDS011;322;48.846;9.230;2023-08-21T08:34:23;14.20;;;10.27;;
679;SDS011;322;48.846;9.230;2023-08-21T08:36:51;13.73;;;9.53;;
679;SDS011;322;48.846;9.230;2023-08-21T08:39:19;18.83;;;10.33;;
679;SDS011;322;48.846;9.230;2023-08-21T08:41:48;14.63;;;9.60;;
679;SDS011;322;48.846;9.230;2023-08-21T08:44:25;14.30;;;10.60;;
679;SDS011;322;48.846;9.230;2023-08-21T08:46:53;14.00;;;10.33;;
679;SDS011;322;48.846;9.230;2023-08-21T08:49:23;14.37;;;9.50;;
679;SDS011;322;48.846;9.230;2023-08-21T08:51:51;13.67;;;9.33;;
679;SDS011;322;48.846;9.230;2023-08-21T08:54:19;14.13;;;9.30;;
679;SDS011;322;48.846;9.230;2023-08-21T08:56:49;15.10;;;9.97;;
679;SDS011;322;48.846;9.230;2023-08-21T08:59:17;14.80;;;9.33;;
679;SDS011;322;48.846;9.230;2023-08-21T09:01:45;14.70;;;9.70;;
679;SDS011;322;48.846;9.230;2023-08-21T09:04:14;12.90;;;8.70;;
679;SDS011;322;48.846;9.230;2023-08-21T09:06:42;12.80;;;9.13;;
679;SDS011;322;48.846;9.230;2023-08-21T09:09:10;13.60;;;9.50;;
679;SDS011;322;48.846;9.230;2023-08-21T09:11:42;13.50;;;8.97;;
679;SDS011;322;48.846;9.230;2023-08-21T09:14:10;13.33;;;9.80;;
679;SDS011;322;48.846;9.230;2023-08-21T09:16:56;14.67;;;9.33;;
679;SDS011;322;48.846;9.230;2023-08-21T09:19:28;12.90;;;8.60;;
679;SDS011;322;48.846;9.230;2023-08-21T09:21:57;13.90;;;8.77;;
679;SDS011;322;48.846;9.230;2023-08-21T09:24:25;12.67;;;8.67;;
679;SDS011;322;48.846;9.230;2023-08-21T09:26:53;14.77;;;9.00;;
679;SDS011;322;48.846;9.230;2023-08-21T09:29:21;11.60;;;9.10;;
679;SDS011;322;48.846;9.230;2023-08-21T09:31:49;13.53;;;8.20;;
679;SDS011;322;48.846;9.230;2023-08-21T09:34:17;15.00;;;8.93;;
679;SDS011;322;48.846;9.230;2023-08-21T09:36:47;14.27;;;9.23;;
679;SDS011;322;48.846;9.230;2023-08-21T09:39:21;12.30;;;8.40;;
679;SDS011;322;48.846;9.230;2023-08-21T09:41:54;13.13;;;8.10;;
679;SDS011;322;48.846;9.230;2023-08-21T09:44:23;12.37;;;7.37;;
679;SDS011;322;48.846;9.230;2023-08-21T09:46:51;11.23;;;7.00;;
679;SDS011;322;48.846;9.230;2023-08-21T09:49:20;12.73;;;7.27;;
679;SDS011;322;48.846;9.230;2023-08-21T09:51:50;10.57;;;6.57;;
679;SDS011;322;48.846;9.230;2023-08-21T09:54:19;12.07;;;7.23;;
679;SDS011;322;48.846;9.230;2023-08-21T09:56:48;12.33;;;6.80;;
679;SDS011;322;48.846;9.230;2023-08-21T09:59:17;9.80;;;6.03;;
679;SDS011;322;48.846;9.230;2023-08-21T10:01:46;11.23;;;6.33;;
679;SDS011;322;48.846;9.230;2023-08-21T10:04:18;11.10;;;6.03;;
679;SDS011;322;48.846;9.230;2023-08-21T10:06:47;10.83;;;6.80;;
679;SDS011;322;48.846;9.230;2023-08-21T10:09:19;10.80;;;6.00;;
679;SDS011;322;48.846;9.230;2023-08-21T10:11:48;9.10;;;5.20;;
679;SDS011;322;48.846;9.230;2023-08-21T10:14:16;10.33;;;4.90;;
679;SDS011;322;48.846;9.230;2023-08-21T10:16:46;10.00;;;5.00;;
679;SDS011;322;48.846;9.230;2023-08-21T10:19:14;12.10;;;5.60;;
679;SDS011;322;48.846;9.230;2023-08-21T10:21:46;10.83;;;5.60;;
679;SDS011;322;48.846;9.230;2023-08-21T10:24:26;11.20;;;6.40;;
679;SDS011;322;48.846;9.230;2023-08-21T10:26:57;13.30;;;5.77;;
679;SDS011;322;48.846;9.230;2023-08-21T10:29:26;11.67;;;6.10;;
679;SDS011;322;48.846;9.230;2023-08-21T10:31:58;10.87;;;5.87;;
679;SDS011;322;48.846;9.230;2023-08-21T10:34:31;10.60;;;5.13;;
679;SDS011;322;48.846;9.230;2023-08-21T10:37:04;11.10;;;5.43;;
679;SDS011;322;48.846;9.230;2023-08-21T10:39:37;11.53;;;5.23;;
679;SDS011;322;48.846;9.230;2023-08-21T10:42:07;10.93;;;6.27;;
679;SDS011;322;48.846;9.230;2023-08-21T10:47:32;11.13;;;5.90;;
679;SDS011;322;48.846;9.230;2023-08-21T10:50:03;10.07;;;5.40;;
679;SDS011;322;48.846;9.230;2023-08-21T10:52:34;12.73;;;6.53;;
679;SDS011;322;48.846;9.230;2023-08-21T10:55:06;10.97;;;6.17;;
679;SDS011;322;48.846;9.230;2023-08-21T10:57:35;10.03;;;5.73;;
679;SDS011;322;48.846;9.230;2023-08-21T11:00:04;9.87;;;6.00;;
679;SDS011;322;48.846;9.230;2023-08-21T11:02:35;11.10;;;6.00;;
679;SDS011;322;48.846;9.230;2023-08-21T11:05:05;10.37;;;6.20;;
679;SDS011;322;48.846;9.230;2023-08-21T11:07:36;10.47;;;5.73;;
679;SDS011;322;48.846;9.230;2023-08-21T11:10:07;11.63;;;5.80;;
679;SDS011;322;48.846;9.230;2023-08-21T11:12:38;11.30;;;5.40;;
679;SDS011;322;48.846;9.230;2023-08-21T11:15:15;11.20;;;5.27;;
679;SDS011;322;48.846;9.230;2023-08-21T11:17:53;10.47;;;5.67;;
679;SDS011;322;48.846;9.230;2023-08-21T11:20:26;10.87;;;5.20;;
679;SDS011;322;48.846;9.230;2023-08-21T11:22:56;10.00;;;5.57;;
679;SDS011;322;48.846;9.230;2023-08-21T11:25:26;14.50;;;7.00;;
679;SDS011;322;48.846;9.230;2023-08-21T11:27:54;11.53;;;6.13;;
679;SDS011;322;48.846;9.230;2023-08-21T11:30:22;10.57;;;5.90;;
679;SDS011;322;48.846;9.230;2023-08-21T11:33:04;11.60;;;5.93;;
679;SDS011;322;48.846;9.230;2023-08-21T11:35:32;9.60;;;5.50;;
679;SDS011;322;48.846;9.230;2023-08-21T11:38:00;10.97;;;6.57;;
679;SDS011;322;48.846;9.230;2023-08-21T11:40:30;13.20;;;6.73;;
679;SDS011;322;48.846;9.230;2023-08-21T11:42:59;10.77;;;5.87;;
679;SDS011;322;48.846;9.230;2023-08-21T11:45:27;12.10;;;6.67;;
679;SDS011;322;48.846;9.230;2023-08-21T11:47:58;10.53;;;5.70;;
679;SDS011;322;48.846;9.230;2023-08-21T11:50:26;12.20;;;5.93;;
679;SDS011;322;48.846;9.230;2023-08-21T11:52:54;10.47;;;6.77;;
679;SDS011;322;48.846;9.230;2023-08-21T11:55:22;12.63;;;8.73;;
679;SDS011;322;48.846;9.230;2023-08-21T11:57:52;13.60;;;6.40;;
679;SDS011;322;48.846;9.230;2023-08-21T12:00:26;11.10;;;6.57;;
679;SDS011;322;48.846;9.230;2023-08-21T12:02:56;14.67;;;6.33;;
679;SDS011;322;48.846;9.230;2023-08-21T12:05:25;13.60;;;6.43;;
679;SDS011;322;48.846;9.230;2023-08-21T12:07:54;14.27;;;6.57;;
679;SDS011;322;48.846;9.230;2023-08-21T12:10:23;11.73;;;6.20;;
679;SDS011;322;48.846;9.230;2023-08-21T12:12:52;10.40;;;5.50;;
679;SDS011;322;48.846;9.230;2023-08-21T12:15:21;10.77;;;6.40;;
679;SDS011;322;48.846;9.230;2023-08-21T12:17:49;11.63;;;5.70;;
679;SDS011;322;48.846;9.230;2023-08-21T12:20:17;10.70;;;5.93;;
679;SDS011;322;48.846;9.230;2023-08-21T12:22:45;11.87;;;6.73;;
679;SDS011;322;48.846;9.230;2023-08-21T12:25:13;9.87;;;6.27;;
679;SDS011;322;48.846;9.230;2023-08-21T12:27:42;9.10;;;5.40;;
679;SDS011;322;48.846;9.230;2023-08-21T12:30:16;10.37;;;6.00;;
679;SDS011;322;48.846;9.230;2023-08-21T12:32:44;10.20;;;5.60;;
679;SDS011;322;48.846;9.230;2023-08-21T12:35:13;10.70;;;6.10;;
679;SDS011;322;48.846;9.230;2023-08-21T12:37:41;12.60;;;6.03;;
679;SDS011;322;48.846;9.230;2023-08-21T12:40:09;8.73;;;5.70;;
679;SDS011;322;48.846;9.230;2023-08-21T12:42:38;10.83;;;6.30;;
679;SDS011;322;48.846;9.230;2023-08-21T12:45:06;11.63;;;6.40;;
679;SDS011;322;48.846;9.230;2023-08-21T12:47:36;10.33;;;6.20;;
679;SDS011;322;48.846;9.230;2023-08-21T12:50:05;10.70;;;5.80;;
679;SDS011;322;48.846;9.230;2023-08-21T12:52:34;9.83;;;6.00;;
679;SDS011;322;48.846;9.230;2023-08-21T12:55:02;11.50;;;6.37;;
679;SDS011;322;48.846;9.230;2023-08-21T12:57:32;9.90;;;6.17;;
679;SDS011;322;48.846;9.230;2023-08-21T13:00:00;13.47;;;6.80;;
679;SDS011;322;48.846;9.230;2023-08-21T13:02:28;11.23;;;6.40;;
679;SDS011;322;48.846;9.230;2023-08-21T13:04:58;9.70;;;6.10;;
679;SDS011;322;48.846;9.230;2023-08-21T13:07:26;11.90;;;6.20;;
679;SDS011;322;48.846;9.230;2023-08-21T13:09:54;11.10;;;6.17;;
679;SDS011;322;48.846;9.230;2023-08-21T13:12:22;11.93;;;6.83;;
679;SDS011;322;48.846;9.230;2023-08-21T13:14:49;11.83;;;5.93;;
679;SDS011;322;48.846;9.230;2023-08-21T13:17:17;10.17;;;6.50;;
679;SDS011;322;48.846;9.230;2023-08-21T13:19:45;11.63;;;6.07;;
679;SDS011;322;48.846;9.230;2023-08-21T13:22:15;11.43;;;6.90;;
679;SDS011;322;48.846;9.230;2023-08-21T13:24:43;13.47;;;7.97;;
679;SDS011;322;48.846;9.230;2023-08-21T13:27:11;12.43;;;6.10;;
679;SDS011;322;48.846;9.230;2023-08-21T13:29:40;9.40;;;6.37;;
679;SDS011;322;48.846;9.230;2023-08-21T13:32:08;9.40;;;5.80;;
679;SDS011;322;48.846;9.230;2023-08-21T13:34:36;11.47;;;6.47;;
679;SDS011;322;48.846;9.230;2023-08-21T13:37:04;9.43;;;5.93;;
679;SDS011;322;48.846;9.230;2023-08-21T13:39:33;10.40;;;6.43;;
679;SDS011;322;48.846;9.230;2023-08-21T13:42:02;13.10;;;6.10;;
679;SDS011;322;48.846;9.230;2023-08-21T13:44:30;10.27;;;6.17;;
679;SDS011;322;48.846;9.230;2023-08-21T13:46:59;9.93;;;5.60;;
679;SDS011;322;48.846;9.230;2023-08-21T13:49:27;11.13;;;5.50;;
679;SDS011;322;48.846;9.230;2023-08-21T13:51:55;12.43;;;5.90;;
679;SDS011;322;48.846;9.230;2023-08-21T13:54:23;10.17;;;5.63;;
679;SDS011;322;48.846;9.230;2023-08-21T13:56:52;10.80;;;6.10;;
679;SDS011;322;48.846;9.230;2023-08-21T13:59:20;10.10;;;5.50;;
679;SDS011;322;48.846;9.230;2023-08-21T14:01:48;11.57;;;5.70;;
679;SDS011;322;48.846;9.230;2023-08-21T14:04:16;15.17;;;5.90;;
679;SDS011;322;48.846;9.230;2023-08-21T14:06:44;11.00;;;5.77;;
679;SDS011;322;48.846;9.230;2023-08-21T14:09:13;9.40;;;5.40;;
679;SDS011;322;48.846;9.230;2023-08-21T14:11:41;11.30;;;5.70;;
679;SDS011;322;48.846;9.230;2023-08-21T14:14:11;9.97;;;5.50;;
679;SDS011;322;48.846;9.230;2023-08-21T14:16:38;9.63;;;5.90;;
679;SDS011;322;48.846;9.230;2023-08-21T14:19:06;10.37;;;5.87;;
679;SDS011;322;48.846;9.230;2023-08-21T14:21:34;10.07;;;5.80;;
679;SDS011;322;48.846;9.230;2023-08-21T14:24:02;11.33;;;6.13;;
679;SDS011;322;48.846;9.230;2023-08-21T14:26:31;10.73;;;5.80;;
679;SDS011;322;48.846;9.230;2023-08-21T14:28:59;10.10;;;5.47;;
679;SDS011;322;48.846;9.230;2023-08-21T14:31:28;12.53;;;6.13;;
679;SDS011;322;48.846;9.230;2023-08-21T14:33:56;13.53;;;6.80;;
679;SDS011;322;48.846;9.230;2023-08-21T14:36:24;11.00;;;6.60;;
679;SDS011;322;48.846;9.230;2023-08-21T14:38:52;11.07;;;6.10;;
679;SDS011;322;48.846;9.230;2023-08-21T14:41:20;10.23;;;6.03;;
679;SDS011;322;48.846;9.230;2023-08-21T14:43:48;12.20;;;5.60;;
679;SDS011;322;48.846;9.230;2023-08-21T14:46:16;9.20;;;5.27;;
679;SDS011;322;48.846;9.230;2023-08-21T14:49:05;10.43;;;5.83;;
679;SDS011;322;48.846;9.230;2023-08-21T14:51:33;11.83;;;5.90;;
679;SDS011;322;48.846;9.230;2023-08-21T14:54:01;10.40;;;5.37;;
679;SDS011;322;48.846;9.230;2023-08-21T14:56:29;11.30;;;5.50;;
679;SDS011;322;48.846;9.230;2023-08-21T14:58:57;11.53;;;5.67;;
679;SDS011;322;48.846;9.230;2023-08-21T15:01:25;11.63;;;5.90;;
679;SDS011;322;48.846;9.230;2023-08-21T15:03:53;10.03;;;5.63;;
679;SDS011;322;48.846;9.230;2023-08-21T15:06:23;10.57;;;6.17;;
679;SDS011;322;48.846;9.230;2023-08-21T15:08:51;9.87;;;5.53;;
679;SDS011;322;48.846;9.230;2023-08-21T15:11:18;9.73;;;5.00;;
679;SDS011;322;48.846;9.230;2023-08-21T15:13:49;9.00;;;5.03;;
679;SDS011;322;48.846;9.230;2023-08-21T15:16:17;10.57;;;5.13;;
679;SDS011;322;48.846;9.230;2023-08-21T15:18:45;9.17;;;5.80;;
679;SDS011;322;48.846;9.230;2023-08-21T15:21:14;9.30;;;6.03;;
679;SDS011;322;48.846;9.230;2023-08-21T15:23:44;10.10;;;6.07;;
679;SDS011;322;48.846;9.230;2023-08-21T15:26:12;12.67;;;6.13;;
679;SDS011;322;48.846;9.230;2023-08-21T15:28:40;11.13;;;6.53;;
679;SDS011;322;48.846;9.230;2023-08-21T15:31:08;9.60;;;6.00;;
679;SDS011;322;48.846;9.230;2023-08-21T15:33:36;9.50;;;5.60;;
679;SDS011;322;48.846;9.230;2023-08-21T15:36:04;15.03;;;6.90;;